Time;durP1;ratioP1;P1;durP2;ratioP2;P2;SDS_P1;SDS_P2;PMS_P1;PMS_P2;Temp;Humidity;BMP_temperature;BMP_pressure;BME280_temperature;BME280_humidity;BME280_pressure;Samples;Min_cycle;Max_cycle;Signal;HPM_P1;HPM_P2
2024/01/24 00:01:08;;;;;;;;;;;8.70;22.10;;;;;;5038111;28;20284;-78
2024/01/24 00:06:45;;;;;;;;;;;8.80;22.10;;;;;;5033309;28;19912;-78
2024/01/24 00:09:33;;;;;;;;;;;8.80;22.00;;;;;;5042165;28;19909;-81
2024/01/24 00:12:09;;;;;;;;;;;8.80;21.60;;;;;;5034687;28;19905;-80
2024/01/24 00:17:37;;;;;;;;;;;8.80;21.20;;;;;;5034036;28;19920;-79
2024/01/24 00:23:06;;;;;;;;;;;9.00;21.20;;;;;;5036824;28;19916;-75
2024/01/24 00:25:31;;;;;;;;;;;8.90;20.60;;;;;;5033923;28;19924;-74
2024/01/24 00:28:05;;;;;;;;;;;8.90;19.40;;;;;;5051066;28;19912;-74
2024/01/24 00:30:33;;;;;;;;;;;8.90;21.70;;;;;;5047937;28;19905;-74
2024/01/24 00:32:59;;;;;;;;;;;9.00;22.50;;;;;;5046346;28;19920;-74
2024/01/24 00:35:33;;;;;;;;;;;9.00;20.30;;;;;;5034939;28;19909;-73
2024/01/24 00:37:59;;;;;;;;;;;8.90;21.30;;;;;;5044634;28;20368;-74
2024/01/24 00:40:24;;;;;;;;;;;9.00;21.60;;;;;;5047316;28;19909;-74
2024/01/24 00:42:50;;;;;;;;;;;9.00;19.30;;;;;;5033471;28;19948;-74
2024/01/24 00:45:15;;;;;;;;;;;9.00;20.30;;;;;;5035151;28;19916;-74
2024/01/24 00:47:41;;;;;;;;;;;9.10;19.30;;;;;;5045515;28;19909;-74
2024/01/24 00:50:28;;;;;;;;;;;9.10;18.00;;;;;;5035378;28;19912;-74
2024/01/24 00:52:59;;;;;;;;;;;9.20;17.60;;;;;;5033754;28;19909;-75
2024/01/24 01:01:31;;;;;;;;;;;9.20;15.10;;;;;;5051790;28;19965;-78
2024/01/24 01:06:59;;;;;;;;;;;9.30;14.00;;;;;;5056979;28;19946;-78
2024/01/24 01:09:27;;;;;;;;;;;9.40;13.60;;;;;;5038324;28;20359;-74
2024/01/24 01:12:09;;;;;;;;;;;9.40;12.50;;;;;;5037017;28;19908;-74
2024/01/24 01:14:45;;;;;;;;;;;9.40;10.20;;;;;;5052381;28;19908;-74
2024/01/24 01:17:10;;;;;;;;;;;9.40;12.80;;;;;;5045929;28;19958;-74
2024/01/24 01:19:36;;;;;;;;;;;9.50;11.80;;;;;;5056811;28;19908;-74
2024/01/24 01:22:09;;;;;;;;;;;9.50;11.60;;;;;;5056731;28;19905;-74
2024/01/24 01:27:37;;;;;;;;;;;9.50;11.00;;;;;;5052926;28;19924;-79
2024/01/24 01:33:06;;;;;;;;;;;9.70;12.60;;;;;;5056435;28;19949;-78
2024/01/24 01:38:45;;;;;;;;;;;9.70;11.70;;;;;;5054796;28;19912;-78
2024/01/24 01:41:11;;;;;;;;;;;9.70;16.30;;;;;;5046398;28;19916;-74
2024/01/24 01:43:37;;;;;;;;;;;9.80;15.60;;;;;;5041315;28;19917;-74
2024/01/24 01:46:27;;;;;;;;;;;9.80;19.20;;;;;;5036730;28;19955;-74
2024/01/24 01:48:55;;;;;;;;;;;9.90;17.00;;;;;;5044347;28;19909;-74
2024/01/24 01:51:33;;;;;;;;;;;9.80;19.70;;;;;;5054209;28;19912;-74
2024/01/24 01:53:59;;;;;;;;;;;9.90;20.40;;;;;;5044253;28;20376;-78
2024/01/24 01:59:28;;;;;;;;;;;9.90;20.10;;;;;;5035982;28;19963;-78
2024/01/24 02:04:57;;;;;;;;;;;10.10;18.20;;;;;;5051925;28;19934;-78
2024/01/24 02:22:45;;;;;;;;;;;10.40;11.30;;;;;;5042269;28;20034;-78
2024/01/24 02:28:45;;;;;;;;;;;10.50;8.50;;;;;;5046624;28;20005;-79
2024/01/24 02:31:15;;;;;;;;;;;10.40;8.90;;;;;;5041076;28;19908;-78
2024/01/24 02:33:57;;;;;;;;;;;10.50;10.00;;;;;;5041728;28;19905;-79
2024/01/24 02:36:22;;;;;;;;;;;10.50;9.00;;;;;;5039052;28;19944;-78
2024/01/24 02:38:48;;;;;;;;;;;10.50;8.00;;;;;;5047531;28;19990;-78
2024/01/24 02:41:17;;;;;;;;;;;10.50;6.30;;;;;;5038079;28;19913;-78
2024/01/24 02:43:57;;;;;;;;;;;10.50;8.80;;;;;;5035210;28;19948;-78
2024/01/24 02:49:25;;;;;;;;;;;10.60;5.80;;;;;;5034636;28;19962;-79
2024/01/24 02:51:51;;;;;;;;;;;10.60;3.50;;;;;;5037319;28;19952;-79
2024/01/24 02:54:35;;;;;;;;;;;10.60;6.10;;;;;;5049700;28;19905;-75
2024/01/24 02:57:01;;;;;;;;;;;10.60;4.10;;;;;;5036621;28;20355;-74
2024/01/24 02:59:26;;;;;;;;;;;10.80;4.10;;;;;;5041880;28;19952;-74
2024/01/24 03:01:57;;;;;;;;;;;10.70;3.60;;;;;;5039151;28;19909;-74
2024/01/24 03:04:23;;;;;;;;;;;10.70;4.80;;;;;;5035263;28;19998;-74
2024/01/24 03:07:03;;;;;;;;;;;10.70;4.80;;;;;;5034870;28;19905;-74
2024/01/24 03:09:29;;;;;;;;;;;10.80;3.30;;;;;;5039556;28;20268;-76
2024/01/24 03:11:57;;;;;;;;;;;10.80;2.70;;;;;;5047461;28;19905;-78
2024/01/24 03:24:03;;;;;;;;;;;10.80;4.00;;;;;;5041446;28;19971;-78
2024/01/24 03:32:34;;;;;;;;;;;10.80;3.60;;;;;;5050384;28;20284;-78
2024/01/24 03:41:06;;;;;;;;;;;10.80;10.00;;;;;;5047583;28;19954;-78
2024/01/24 03:55:43;;;;;;;;;;;10.80;10.60;;;;;;5053675;28;19916;-74
2024/01/24 03:58:09;;;;;;;;;;;10.80;12.80;;;;;;5042076;28;20356;-74
2024/01/24 04:00:35;;;;;;;;;;;10.90;8.70;;;;;;5042349;28;19909;-74
2024/01/24 04:03:03;;;;;;;;;;;10.80;11.30;;;;;;5040972;28;19916;-74
2024/01/24 04:05:29;;;;;;;;;;;10.90;11.10;;;;;;5036706;28;19909;-74
2024/01/24 04:07:57;;;;;;;;;;;10.90;8.30;;;;;;5034040;28;20353;-74
2024/01/24 04:10:33;;;;;;;;;;;10.90;11.10;;;;;;5038055;28;20330;-74
2024/01/24 04:12:59;;;;;;;;;;;10.90;8.70;;;;;;5034488;28;19909;-74
2024/01/24 04:15:27;;;;;;;;;;;11.00;11.30;;;;;;5047549;28;19970;-74
2024/01/24 04:17:52;;;;;;;;;;;11.00;5.10;;;;;;5042394;28;19974;-74
2024/01/24 04:20:28;;;;;;;;;;;11.00;7.60;;;;;;5042039;28;19913;-74
2024/01/24 04:23:09;;;;;;;;;;;11.10;6.30;;;;;;5043023;28;19909;-74
2024/01/24 04:25:35;;;;;;;;;;;11.00;4.10;;;;;;5041595;28;19909;-74
2024/01/24 04:28:03;;;;;;;;;;;11.00;7.00;;;;;;5034545;28;20039;-74
2024/01/24 04:30:29;;;;;;;;;;;11.10;3.90;;;;;;5043870;28;19959;-74
2024/01/24 04:33:04;;;;;;;;;;;11.00;7.20;;;;;;5037460;28;19909;-74
2024/01/24 04:35:29;;;;;;;;;;;11.10;7.70;;;;;;5034984;28;19963;-74
2024/01/24 04:37:55;;;;;;;;;;;11.10;6.90;;;;;;5033725;28;19909;-75
2024/01/24 04:40:21;;;;;;;;;;;11.10;4.70;;;;;;5050369;28;19909;-75
2024/01/24 04:42:52;;;;;;;;;;;11.10;7.20;;;;;;5050525;28;19917;-74
2024/01/24 04:45:33;;;;;;;;;;;11.10;6.50;;;;;;5043966;28;19912;-74
2024/01/24 04:48:03;;;;;;;;;;;11.20;6.60;;;;;;5048240;28;20253;-74
2024/01/24 04:50:29;;;;;;;;;;;11.20;5.80;;;;;;5036642;28;19920;-74
2024/01/24 04:52:57;;;;;;;;;;;11.10;9.60;;;;;;5040994;28;19909;-74
2024/01/24 04:55:33;;;;;;;;;;;11.00;17.00;;;;;;5037893;28;20020;-77
2024/01/24 04:57:59;;;;;;;;;;;11.00;22.70;;;;;;5037310;28;19912;-75
2024/01/24 05:00:25;;;;;;;;;;;10.90;39.50;;;;;;5044601;28;19913;-75
2024/01/24 05:02:51;;;;;;;;;;;10.90;42.60;;;;;;5043669;28;19905;-74
2024/01/24 05:05:17;;;;;;;;;;;10.80;42.60;;;;;;5037535;28;19916;-74
2024/01/24 05:07:45;;;;;;;;;;;10.80;39.40;;;;;;5047726;28;19905;-75
2024/01/24 05:10:16;;;;;;;;;;;10.70;42.60;;;;;;5044608;28;19916;-75
2024/01/24 05:12:45;;;;;;;;;;;10.60;52.50;;;;;;5046813;28;19905;-75
2024/01/24 05:15:11;;;;;;;;;;;10.60;64.30;;;;;;5041134;28;19909;-74
2024/01/24 05:18:03;;;;;;;;;;;10.60;70.50;;;;;;5049722;28;19931;-75
2024/01/24 05:20:33;;;;;;;;;;;10.60;77.20;;;;;;5052026;28;19909;-75
2024/01/24 05:23:03;;;;;;;;;;;10.60;83.60;;;;;;5046896;28;20317;-75
2024/01/24 05:25:33;;;;;;;;;;;10.60;87.20;;;;;;5049170;28;19924;-74
2024/01/24 05:31:02;;;;;;;;;;;10.60;91.90;;;;;;5056198;28;19954;-80
2024/01/24 05:36:31;;;;;;;;;;;10.70;89.20;;;;;;5053299;28;20389;-80
2024/01/24 05:38:57;;;;;;;;;;;10.70;90.80;;;;;;5043368;28;19905;-81
2024/01/24 05:41:22;;;;;;;;;;;10.70;87.00;;;;;;5068785;28;19916;-80
2024/01/24 05:43:51;;;;;;;;;;;10.80;90.10;;;;;;5046701;28;19917;-80
2024/01/24 05:46:45;;;;;;;;;;;10.80;90.40;;;;;;5052878;28;19944;-79
2024/01/24 05:52:15;;;;;;;;;;;11.00;79.00;;;;;;5052260;28;19984;-75
2024/01/24 05:54:41;;;;;;;;;;;11.00;82.60;;;;;;5046890;28;20035;-75
2024/01/24 05:57:07;;;;;;;;;;;11.00;75.30;;;;;;5046215;28;20352;-74
2024/01/24 05:59:39;;;;;;;;;;;10.90;78.10;;;;;;5042952;28;19912;-80
2024/01/24 06:05:07;;;;;;;;;;;11.10;75.00;;;;;;5039079;28;19915;-75
2024/01/24 06:07:33;;;;;;;;;;;11.10;72.00;;;;;;5038245;28;19905;-75
2024/01/24 06:10:21;;;;;;;;;;;11.20;64.10;;;;;;5050794;28;19905;-78
2024/01/24 06:18:52;;;;;;;;;;;11.30;60.50;;;;;;5043238;28;19916;-86
2024/01/24 06:24:21;;;;;;;;;;;11.30;55.70;;;;;;5035804;28;20376;-81
2024/01/24 06:26:51;;;;;;;;;;;11.40;56.40;;;;;;5043338;28;19917;-76
2024/01/24 06:29:21;;;;;;;;;;;11.50;53.00;;;;;;5035595;28;20390;-75
2024/01/24 06:31:47;;;;;;;;;;;11.50;52.90;;;;;;5050596;28;19963;-76
2024/01/24 06:34:21;;;;;;;;;;;11.40;53.50;;;;;;5047667;28;19905;-76
2024/01/24 06:36:47;;;;;;;;;;;11.50;50.30;;;;;;5048479;28;19917;-75
2024/01/24 06:39:13;;;;;;;;;;;11.50;52.60;;;;;;5040376;28;19905;-75
2024/01/24 06:41:38;;;;;;;;;;;11.50;46.60;;;;;;5035478;28;19913;-74
2024/01/24 06:44:05;;;;;;;;;;;11.50;43.40;;;;;;5036556;28;19932;-75
2024/01/24 06:46:31;;;;;;;;;;;11.50;43.40;;;;;;5036049;28;20043;-76
2024/01/24 06:48:57;;;;;;;;;;;11.60;43.50;;;;;;5036506;28;19916;-74
2024/01/24 06:51:23;;;;;;;;;;;11.60;54.10;;;;;;5045528;28;20272;-75
2024/01/24 06:53:49;;;;;;;;;;;11.60;61.50;;;;;;5034926;28;19905;-75
2024/01/24 06:56:14;;;;;;;;;;;11.50;75.10;;;;;;5048344;28;20004;-75
2024/01/24 06:58:51;;;;;;;;;;;11.40;77.30;;;;;;5052054;28;19955;-75
2024/01/24 07:01:27;;;;;;;;;;;11.40;86.60;;;;;;5034828;28;19913;-75
2024/01/24 07:03:57;;;;;;;;;;;11.40;88.80;;;;;;5036901;28;19909;-75
2024/01/24 07:06:51;;;;;;;;;;;11.40;91.30;;;;;;5035027;28;19920;-76
2024/01/24 07:09:21;;;;;;;;;;;11.40;91.50;;;;;;5044604;28;20370;-76
2024/01/24 07:11:51;;;;;;;;;;;11.30;93.60;;;;;;5039564;28;19909;-77
2024/01/24 07:14:17;;;;;;;;;;;11.40;96.10;;;;;;5042074;28;19909;-76
2024/01/24 07:16:45;;;;;;;;;;;11.40;97.30;;;;;;5038731;28;19905;-76
2024/01/24 07:19:11;;;;;;;;;;;11.40;97.40;;;;;;5038889;28;19912;-76
2024/01/24 07:21:36;;;;;;;;;;;11.40;99.20;;;;;;5034642;28;19912;-76
2024/01/24 07:24:09;;;;;;;;;;;11.30;99.70;;;;;;5039095;28;19997;-76
2024/01/24 07:26:35;;;;;;;;;;;11.30;99.70;;;;;;5045120;28;19909;-75
2024/01/24 07:29:21;;;;;;;;;;;11.40;99.90;;;;;;5046895;28;19915;-81
2024/01/24 07:32:03;;;;;;;;;;;11.40;99.90;;;;;;5053235;28;20954;-81
2024/01/24 07:37:32;;;;;;;;;;;11.50;99.90;;;;;;5040296;28;19912;-81
2024/01/24 07:39:57;;;;;;;;;;;11.50;99.90;;;;;;5040327;28;19917;-82
2024/01/24 07:42:27;;;;;;;;;;;11.40;99.20;;;;;;5038648;28;20226;-76
2024/01/24 07:47:56;;;;;;;;;;;11.40;99.90;;;;;;5045086;28;19973;-76
2024/01/24 07:50:51;;;;;;;;;;;11.40;99.90;;;;;;5051343;28;20325;-76
2024/01/24 07:53:23;;;;;;;;;;;11.50;99.90;;;;;;5051463;28;20251;-75
2024/01/24 07:55:51;;;;;;;;;;;11.50;99.90;;;;;;5047413;28;19909;-78
2024/01/24 07:58:27;;;;;;;;;;;11.50;99.90;;;;;;5044501;28;19905;-82
2024/01/24 08:01:21;;;;;;;;;;;11.70;96.30;;;;;;5040924;28;19917;-80
2024/01/24 08:03:47;;;;;;;;;;;11.70;92.00;;;;;;5043681;28;19915;-81
2024/01/24 08:06:14;;;;;;;;;;;11.70;70.30;;;;;;5048824;28;19905;-80
2024/01/24 08:14:45;;;;;;;;;;;11.90;40.40;;;;;;5043348;28;19916;-75
2024/01/24 08:17:15;;;;;;;;;;;11.90;43.90;;;;;;5056410;28;20393;-74
2024/01/24 08:19:45;;;;;;;;;;;12.00;43.70;;;;;;5056200;28;20284;-75
2024/01/24 08:22:15;;;;;;;;;;;12.00;43.70;;;;;;5041875;28;19917;-75
2024/01/24 08:24:45;;;;;;;;;;;12.00;43.70;;;;;;5054212;28;19916;-75
2024/01/24 08:27:17;;;;;;;;;;;12.10;43.80;;;;;;5056078;28;19951;-75
2024/01/24 08:29:45;;;;;;;;;;;12.10;44.00;;;;;;5050702;28;19951;-80
2024/01/24 08:32:11;;;;;;;;;;;12.20;43.80;;;;;;5040679;28;20272;-80
2024/01/24 08:34:51;;;;;;;;;;;12.30;40.70;;;;;;5053113;28;19905;-79
2024/01/24 08:37:33;;;;;;;;;;;12.40;44.10;;;;;;5045865;28;19971;-81
2024/01/24 08:40:33;;;;;;;;;;;12.50;34.10;;;;;;5047958;28;19939;-81
2024/01/24 08:43:21;;;;;;;;;;;12.60;17.30;;;;;;5052270;28;20270;-81
2024/01/24 08:46:21;;;;;;;;;;;12.70;12.70;;;;;;5044896;28;19908;-81
2024/01/24 08:48:51;;;;;;;;;;;12.80;7.90;;;;;;5052437;28;19916;-81
2024/01/24 08:51:45;;;;;;;;;;;12.90;1.00;;;;;;5048593;28;19936;-81
2024/01/24 08:54:11;;;;;;;;;;;13.10;1.00;;;;;;5044098;28;19909;-81
2024/01/24 08:56:51;;;;;;;;;;;13.30;1.00;;;;;;5047461;28;20008;-80
2024/01/24 08:59:21;;;;;;;;;;;13.40;1.00;;;;;;5050303;28;20337;-81
2024/01/24 09:01:55;;;;;;;;;;;13.40;1.00;;;;;;5054831;28;19915;-79
2024/01/24 09:04:21;;;;;;;;;;;13.50;1.00;;;;;;5048972;28;19909;-81
2024/01/24 09:06:51;;;;;;;;;;;13.50;1.00;;;;;;5047251;28;19917;-80
2024/01/24 09:09:39;;;;;;;;;;;13.50;1.00;;;;;;5053156;28;19916;-81
2024/01/24 09:15:09;;;;;;;;;;;13.60;1.00;;;;;;5040198;28;19916;-85
2024/01/24 09:17:35;;;;;;;;;;;13.60;1.00;;;;;;5043540;28;19909;-72
2024/01/24 09:20:02;;;;;;;;;;;13.70;1.00;;;;;;5047296;28;20245;-76
2024/01/24 09:22:51;;;;;;;;;;;13.60;1.00;;;;;;5037558;28;19988;-75
2024/01/24 09:25:22;;;;;;;;;;;13.70;1.00;;;;;;5055641;28;19904;-76
2024/01/24 09:28:15;;;;;;;;;;;13.80;1.00;;;;;;5047855;28;19986;-79
2024/01/24 09:30:51;;;;;;;;;;;13.80;1.00;;;;;;5049644;28;19911;-77
2024/01/24 09:33:23;;;;;;;;;;;13.80;1.00;;;;;;5046405;28;20003;-78
2024/01/24 09:35:51;;;;;;;;;;;13.90;1.00;;;;;;5042520;28;19999;-76
2024/01/24 09:38:21;;;;;;;;;;;13.90;1.00;;;;;;5040880;28;19909;-77
2024/01/24 09:41:00;;;;;;;;;;;14.00;1.00;;;;;;5036094;28;20399;-77
2024/01/24 09:43:57;;;;;;;;;;;14.20;1.00;;;;;;5049746;28;19924;-85
2024/01/24 09:46:43;;;;;;;;;;;14.30;1.00;;;;;;5051060;28;20288;-80
2024/01/24 09:49:10;;;;;;;;;;;14.20;1.00;;;;;;5049976;28;19909;-82
2024/01/24 09:54:57;;;;;;;;;;;14.20;1.00;;;;;;5051161;28;19923;-80
2024/01/24 10:00:52;;;;;;;;;;;14.10;1.00;;;;;;5051972;28;19931;-78
2024/01/24 10:03:22;;;;;;;;;;;14.00;1.00;;;;;;5045300;28;19951;-79
2024/01/24 10:06:04;;;;;;;;;;;14.00;1.00;;;;;;5050856;28;19995;-77
2024/01/24 10:11:33;;;;;;;;;;;14.00;1.00;;;;;;5043530;28;19994;-76
2024/01/24 10:14:15;;;;;;;;;;;13.70;1.00;;;;;;5036389;28;19979;-77
2024/01/24 10:16:51;;;;;;;;;;;13.70;1.00;;;;;;5044907;28;19909;-78
2024/01/24 10:19:51;;;;;;;;;;;13.70;1.00;;;;;;5055431;28;20382;-77
2024/01/24 10:22:24;;;;;;;;;;;13.60;1.00;;;;;;5048498;28;19912;-78
2024/01/24 10:24:54;;;;;;;;;;;13.60;1.00;;;;;;5045490;28;19912;-79
2024/01/24 10:27:22;;;;;;;;;;;13.60;1.00;;;;;;5048758;28;20261;-78
2024/01/24 10:29:51;;;;;;;;;;;13.60;1.00;;;;;;5053217;28;20352;-78
2024/01/24 10:32:21;;;;;;;;;;;13.60;1.00;;;;;;5053049;28;19916;-79
2024/01/24 10:35:21;;;;;;;;;;;13.60;1.00;;;;;;5052614;28;19905;-77
2024/01/24 10:37:52;;;;;;;;;;;13.60;1.00;;;;;;5051153;28;19908;-77
2024/01/24 10:40:22;;;;;;;;;;;13.60;1.00;;;;;;5033630;28;19985;-78
2024/01/24 10:42:53;;;;;;;;;;;13.60;1.00;;;;;;5041046;28;20012;-77
2024/01/24 10:45:51;;;;;;;;;;;13.60;1.00;;;;;;5043731;28;19913;-77
2024/01/24 10:51:20;;;;;;;;;;;13.40;1.00;;;;;;5049586;28;19935;-77
2024/01/24 10:53:52;;;;;;;;;;;13.40;1.00;;;;;;5052799;28;19908;-78
2024/01/24 10:56:23;;;;;;;;;;;13.50;1.00;;;;;;5054305;28;19905;-77
2024/01/24 10:58:51;;;;;;;;;;;13.50;1.00;;;;;;5047077;28;19909;-76
2024/01/24 11:01:21;;;;;;;;;;;13.50;1.00;;;;;;5048691;28;20370;-76
2024/01/24 11:04:21;;;;;;;;;;;13.50;1.00;;;;;;5054173;28;19957;-76
2024/01/24 11:10:09;;;;;;;;;;;13.50;1.00;;;;;;5048674;28;19912;-76
2024/01/24 11:12:35;;;;;;;;;;;13.50;1.00;;;;;;5040779;28;19909;-76
2024/01/24 11:15:08;;;;;;;;;;;13.60;1.00;;;;;;5053429;28;20003;-76
2024/01/24 11:17:33;;;;;;;;;;;13.70;1.00;;;;;;5049547;28;19905;-77
2024/01/24 11:20:06;;;;;;;;;;;13.50;1.00;;;;;;5042850;28;19916;-76
2024/01/24 11:22:32;;;;;;;;;;;13.50;1.00;;;;;;5034012;28;19909;-77
2024/01/24 11:24:59;;;;;;;;;;;13.50;1.00;;;;;;5046256;28;19909;-77
2024/01/24 11:27:51;;;;;;;;;;;13.50;1.00;;;;;;5041912;28;19988;-76
2024/01/24 11:30:37;;;;;;;;;;;13.50;1.00;;;;;;5041100;28;19905;-78
2024/01/24 11:33:21;;;;;;;;;;;13.50;1.00;;;;;;5054315;28;19908;-77
2024/01/24 11:35:53;;;;;;;;;;;13.50;1.00;;;;;;5041610;28;19951;-78
2024/01/24 11:38:51;;;;;;;;;;;13.60;1.00;;;;;;5043282;28;19908;-78
2024/01/24 11:41:20;;;;;;;;;;;13.70;1.00;;;;;;5043756;28;19994;-78
2024/01/24 11:46:48;;;;;;;;;;;13.70;1.00;;;;;;5053693;28;19968;-78
2024/01/24 11:49:33;;;;;;;;;;;13.60;1.00;;;;;;5041348;28;20372;-78
2024/01/24 12:01:21;;;;;;;;;;;13.60;1.00;;;;;;5050703;28;19921;-77
2024/01/24 12:10:09;;;;;;;;;;;13.40;1.00;;;;;;5035195;28;19912;-77
2024/01/24 12:21:45;;;;;;;;;;;13.50;1.00;;;;;;5035333;28;20434;-76
2024/01/24 12:24:45;;;;;;;;;;;13.50;1.00;;;;;;5052586;28;19909;-77
2024/01/24 12:36:33;;;;;;;;;;;13.60;1.00;;;;;;5041153;28;19920;-76
2024/01/24 12:39:04;;;;;;;;;;;13.30;1.00;;;;;;5032794;28;19995;-75
2024/01/24 12:41:31;;;;;;;;;;;13.30;1.00;;;;;;5044983;28;19913;-76
2024/01/24 12:43:57;;;;;;;;;;;13.20;1.00;;;;;;5045676;28;19909;-77
2024/01/24 12:46:23;;;;;;;;;;;13.20;1.00;;;;;;5052946;28;19912;-77
2024/01/24 12:58:27;;;;;;;;;;;13.20;1.00;;;;;;5042375;28;19920;-80
2024/01/24 13:01:04;;;;;;;;;;;13.20;1.00;;;;;;5044530;28;19944;-83
2024/01/24 13:07:04;;;;;;;;;;;13.20;1.00;;;;;;5046536;28;19916;-79
2024/01/24 13:09:33;;;;;;;;;;;13.20;1.00;;;;;;5053269;28;19920;-78
2024/01/24 13:15:15;;;;;;;;;;;13.30;1.00;;;;;;5048383;28;20327;-77
2024/01/24 13:20:44;;;;;;;;;;;13.20;1.00;;;;;;5053532;28;19955;-77
2024/01/24 13:26:45;;;;;;;;;;;13.20;1.00;;;;;;5039345;28;19932;-77
2024/01/24 13:29:21;;;;;;;;;;;13.10;1.00;;;;;;5042596;28;19915;-77
2024/01/24 13:34:57;;;;;;;;;;;13.10;1.00;;;;;;5055720;28;21062;-79
2024/01/24 13:37:23;;;;;;;;;;;13.10;1.00;;;;;;5054923;28;19996;-78
2024/01/24 13:39:51;;;;;;;;;;;13.10;1.00;;;;;;5047520;28;19944;-79
2024/01/24 13:45:34;;;;;;;;;;;13.20;1.00;;;;;;5053916;28;20394;-80
2024/01/24 13:48:03;;;;;;;;;;;13.10;1.00;;;;;;5047961;28;19991;-79
2024/01/24 13:59:38;;;;;;;;;;;13.40;1.00;;;;;;5036084;28;19920;-78
2024/01/24 14:02:21;;;;;;;;;;;13.40;1.00;;;;;;5036384;28;19904;-79
2024/01/24 14:13:56;;;;;;;;;;;13.50;1.00;;;;;;5055777;28;20278;-77
2024/01/24 14:16:22;;;;;;;;;;;13.70;1.00;;;;;;5050595;28;19917;-78
2024/01/24 14:19:03;;;;;;;;;;;13.60;1.00;;;;;;5035643;28;20276;-78
2024/01/24 14:21:29;;;;;;;;;;;13.60;1.00;;;;;;5035637;28;20019;-77
2024/01/24 14:23:58;;;;;;;;;;;13.60;1.00;;;;;;5038683;28;19987;-79
2024/01/24 14:32:29;;;;;;;;;;;13.60;1.00;;;;;;5041587;28;19948;-77
2024/01/24 14:37:58;;;;;;;;;;;13.60;1.00;;;;;;5041592;28;19920;-76
2024/01/24 14:40:23;;;;;;;;;;;13.60;1.00;;;;;;5035427;28;19913;-76
2024/01/24 14:42:49;;;;;;;;;;;13.70;1.00;;;;;;5049878;28;19916;-76
2024/01/24 14:45:33;;;;;;;;;;;13.70;1.00;;;;;;5041881;28;19956;-76
2024/01/24 14:47:59;;;;;;;;;;;13.80;1.00;;;;;;5043380;28;19913;-77
2024/01/24 14:50:29;;;;;;;;;;;13.80;1.00;;;;;;5038000;28;19911;-77
2024/01/24 14:53:03;;;;;;;;;;;13.70;1.00;;;;;;5052689;28;19909;-76
2024/01/24 14:55:29;;;;;;;;;;;13.60;1.00;;;;;;5039692;28;19958;-76
2024/01/24 14:57:59;;;;;;;;;;;13.60;1.00;;;;;;5035187;28;19905;-76
2024/01/24 15:00:33;;;;;;;;;;;13.50;1.00;;;;;;5035170;28;19916;-77
2024/01/24 15:03:33;;;;;;;;;;;13.40;1.00;;;;;;5043309;28;20001;-77
2024/01/24 15:06:21;;;;;;;;;;;13.50;1.00;;;;;;5044306;28;19916;-78
2024/01/24 15:08:47;;;;;;;;;;;13.40;1.00;;;;;;5034779;28;19909;-77
2024/01/24 15:11:33;;;;;;;;;;;13.30;1.00;;;;;;5041115;28;19912;-76
2024/01/24 15:17:02;;;;;;;;;;;13.30;1.00;;;;;;5035673;28;19932;-83
2024/01/24 15:28:37;;;;;;;;;;;13.00;1.00;;;;;;5037550;28;19971;-81
2024/01/24 15:31:03;;;;;;;;;;;12.90;1.00;;;;;;5034546;28;19912;-76
2024/01/24 15:33:41;;;;;;;;;;;12.80;1.00;;;;;;5038275;28;20272;-80
2024/01/24 15:36:07;;;;;;;;;;;12.80;1.00;;;;;;5042862;28;19955;-82
2024/01/24 15:38:39;;;;;;;;;;;12.90;1.00;;;;;;5054509;28;19905;-82
2024/01/24 15:41:05;;;;;;;;;;;12.90;1.00;;;;;;5046717;28;20054;-82
2024/01/24 15:43:37;;;;;;;;;;;12.90;1.00;;;;;;5035529;28;19955;-79
2024/01/24 15:49:06;;;;;;;;;;;12.80;1.00;;;;;;5048257;28;19951;-83
2024/01/24 15:51:57;;;;;;;;;;;12.70;1.00;;;;;;5049748;28;20462;-84
2024/01/24 15:54:51;;;;;;;;;;;12.60;1.00;;;;;;5049975;28;19955;-85
2024/01/24 16:03:25;;;;;;;;;;;12.40;1.00;;;;;;5035992;28;20399;-82
2024/01/24 16:05:51;;;;;;;;;;;12.40;1.00;;;;;;5043682;28;19909;-83
2024/01/24 16:08:17;;;;;;;;;;;12.40;1.00;;;;;;5037008;28;19911;-78
2024/01/24 16:10:47;;;;;;;;;;;12.40;1.00;;;;;;5037911;28;19905;-76
2024/01/24 16:13:21;;;;;;;;;;;12.30;1.00;;;;;;5037717;28;19916;-75
2024/01/24 16:16:09;;;;;;;;;;;12.30;1.00;;;;;;5045511;28;19909;-76
2024/01/24 16:21:43;;;;;;;;;;;12.30;1.00;;;;;;5041369;28;19967;-75
2024/01/24 16:30:15;;;;;;;;;;;12.10;1.00;;;;;;5039370;28;20008;-77
2024/01/24 16:35:43;;;;;;;;;;;12.10;1.00;;;;;;5037297;28;19915;-77
2024/01/24 16:41:11;;;;;;;;;;;12.10;1.00;;;;;;5056334;28;19919;-82
2024/01/24 16:49:43;;;;;;;;;;;11.90;1.00;;;;;;5049824;28;19911;-83
2024/01/24 16:52:16;;;;;;;;;;;12.00;1.00;;;;;;5054713;28;19912;-75
2024/01/24 16:55:15;;;;;;;;;;;11.90;1.00;;;;;;5055586;28;20325;-75
2024/01/24 16:58:15;;;;;;;;;;;12.00;1.00;;;;;;5047985;28;19909;-76
2024/01/24 17:00:41;;;;;;;;;;;12.00;1.00;;;;;;5044463;28;20074;-74
2024/01/24 17:03:09;;;;;;;;;;;12.00;1.00;;;;;;5040772;28;20391;-75
2024/01/24 17:06:09;;;;;;;;;;;11.90;1.00;;;;;;5045857;28;19909;-75
2024/01/24 17:09:03;;;;;;;;;;;11.80;1.00;;;;;;5052698;28;19955;-77
2024/01/24 17:12:04;;;;;;;;;;;11.70;1.00;;;;;;5059018;28;20323;-75
2024/01/24 17:17:36;;;;;;;;;;;11.60;1.00;;;;;;5056616;28;19911;-76
2024/01/24 17:20:27;;;;;;;;;;;11.70;1.00;;;;;;5049045;28;19916;-75
2024/01/24 17:23:15;;;;;;;;;;;11.70;1.00;;;;;;5050401;28;20422;-81
2024/01/24 17:25:45;;;;;;;;;;;11.70;1.00;;;;;;5050540;28;19915;-79
2024/01/24 17:28:11;;;;;;;;;;;11.60;1.00;;;;;;5045870;28;19912;-83
2024/01/24 17:30:40;;;;;;;;;;;11.50;1.00;;;;;;5035223;28;19909;-74
2024/01/24 17:33:10;;;;;;;;;;;11.60;1.00;;;;;;5037144;28;20281;-74
2024/01/24 17:38:38;;;;;;;;;;;11.60;1.00;;;;;;5036529;28;20486;-78
2024/01/24 17:41:06;;;;;;;;;;;11.50;1.00;;;;;;5042778;28;19992;-78
2024/01/24 17:49:46;;;;;;;;;;;11.50;1.00;;;;;;5036820;28;19958;-80
2024/01/24 17:52:12;;;;;;;;;;;11.50;1.00;;;;;;5034733;28;20371;-81
2024/01/24 17:57:42;;;;;;;;;;;11.40;1.00;;;;;;5037488;28;19963;-79
2024/01/24 18:03:10;;;;;;;;;;;11.40;1.00;;;;;;5036961;28;19951;-80
2024/01/24 18:05:45;;;;;;;;;;;11.50;1.00;;;;;;5040994;28;20356;-75
2024/01/24 18:08:16;;;;;;;;;;;11.40;1.00;;;;;;5056337;28;19944;-77
2024/01/24 18:11:09;;;;;;;;;;;11.40;1.00;;;;;;5055749;28;20371;-76
2024/01/24 18:20:09;;;;;;;;;;;11.30;1.00;;;;;;5038952;28;19959;-76
2024/01/24 18:22:52;;;;;;;;;;;11.30;1.00;;;;;;5038842;28;19912;-76
2024/01/24 18:25:51;;;;;;;;;;;11.30;1.00;;;;;;5040831;28;20011;-78
2024/01/24 18:28:17;;;;;;;;;;;11.30;1.00;;;;;;5050826;28;19909;-76
2024/01/24 18:30:52;;;;;;;;;;;11.30;1.00;;;;;;5049828;28;19916;-75
2024/01/24 18:36:51;;;;;;;;;;;11.20;1.00;;;;;;5034988;28;19967;-77
2024/01/24 18:39:21;;;;;;;;;;;11.20;1.00;;;;;;5053395;28;19908;-76
2024/01/24 18:41:47;;;;;;;;;;;11.20;1.00;;;;;;5040025;28;19962;-75
2024/01/24 18:44:16;;;;;;;;;;;11.20;1.00;;;;;;5035672;28;19913;-75
2024/01/24 18:53:07;;;;;;;;;;;11.10;1.00;;;;;;5050029;28;19932;-77
2024/01/24 18:55:46;;;;;;;;;;;11.10;1.00;;;;;;5048940;28;19915;-76
2024/01/24 19:01:15;;;;;;;;;;;11.10;1.00;;;;;;5052428;28;19915;-79
2024/01/24 19:06:46;;;;;;;;;;;11.10;1.00;;;;;;5053983;28;20022;-76
2024/01/24 19:09:16;;;;;;;;;;;11.10;1.00;;;;;;5038436;28;19909;-75
2024/01/24 19:11:45;;;;;;;;;;;11.00;1.00;;;;;;5044920;28;19905;-74
2024/01/24 19:14:45;;;;;;;;;;;11.00;1.00;;;;;;5039041;28;19996;-75
2024/01/24 19:17:27;;;;;;;;;;;10.90;1.00;;;;;;5038765;28;19915;-79
2024/01/24 19:19:53;;;;;;;;;;;10.90;1.00;;;;;;5040695;28;19909;-76
2024/01/24 19:22:22;;;;;;;;;;;10.80;1.00;;;;;;5041066;28;19913;-75
2024/01/24 19:31:21;;;;;;;;;;;10.90;1.00;;;;;;5045101;28;19915;-75
2024/01/24 19:33:52;;;;;;;;;;;10.80;1.00;;;;;;5035042;28;19909;-76
2024/01/24 19:39:20;;;;;;;;;;;10.90;1.00;;;;;;5047822;28;19977;-76
2024/01/24 19:41:45;;;;;;;;;;;10.90;1.00;;;;;;5040774;28;20348;-76
2024/01/24 19:44:11;;;;;;;;;;;10.90;1.00;;;;;;5049682;28;19912;-76
2024/01/24 19:46:45;;;;;;;;;;;10.70;1.00;;;;;;5040891;28;19905;-76
2024/01/24 19:49:11;;;;;;;;;;;10.60;1.00;;;;;;5049743;28;19908;-75
2024/01/24 19:51:40;;;;;;;;;;;10.50;1.00;;;;;;5048273;28;19931;-75
2024/01/24 19:54:05;;;;;;;;;;;10.50;1.00;;;;;;5034787;28;19940;-76
2024/01/24 19:56:31;;;;;;;;;;;10.50;1.00;;;;;;5052420;28;19948;-76
2024/01/24 19:58:59;;;;;;;;;;;10.50;1.00;;;;;;5050138;28;19948;-76
2024/01/24 20:01:28;;;;;;;;;;;10.50;1.00;;;;;;5040972;28;19972;-75
2024/01/24 20:04:04;;;;;;;;;;;10.40;1.00;;;;;;5040138;28;19908;-75
2024/01/24 20:06:46;;;;;;;;;;;10.40;1.00;;;;;;5041327;28;19913;-75
2024/01/24 20:09:22;;;;;;;;;;;10.40;1.00;;;;;;5039482;28;19954;-75
2024/01/24 20:11:52;;;;;;;;;;;10.40;1.00;;;;;;5039590;28;19999;-76
2024/01/24 20:14:17;;;;;;;;;;;10.40;1.00;;;;;;5032653;28;19905;-76
2024/01/24 20:17:04;;;;;;;;;;;10.40;1.00;;;;;;5034921;28;19905;-76
2024/01/24 20:19:57;;;;;;;;;;;10.30;1.00;;;;;;5037856;28;20011;-76
2024/01/24 20:22:51;;;;;;;;;;;10.30;1.00;;;;;;5046920;28;19912;-76
2024/01/24 20:25:28;;;;;;;;;;;10.30;1.00;;;;;;5051138;28;19915;-76